Time;durP1;ratioP1;P1;durP2;ratioP2;P2;SDS_P1;SDS_P2;PMS_P1;PMS_P2;Temp;Humidity;BMP_temperature;BMP_pressure;BME280_temperature;BME280_humidity;BME280_pressure;Samples;Min_cycle;Max_cycle;Signal;HPM_P1;HPM_P2
2022/03/09 00:00:40;;;;;;;25.38;11.02;;;;;;;2.71;65.85;101177.63;8367952;28;20057;-64
2022/03/09 00:04:40;;;;;;;21.73;12.43;;;;;;;2.14;68.49;101182.22;8383496;28;20435;-64
2022/03/09 00:08:41;;;;;;;22.88;12.50;;;;;;;2.06;69.72;101187.91;8399351;28;20186;-64
2022/03/09 00:12:42;;;;;;;25.05;13.30;;;;;;;2.28;68.47;101195.78;8400677;28;20041;-64
2022/03/09 00:16:43;;;;;;;18.33;10.23;;;;;;;2.62;67.13;101191.41;8400390;28;20067;-64
2022/03/09 00:20:45;;;;;;;19.98;10.20;;;;;;;2.77;66.08;101204.03;8380994;28;20054;-64
2022/03/09 00:24:45;;;;;;;18.63;9.55;;;;;;;2.91;65.82;101206.91;8398391;28;20428;-64
2022/03/09 00:28:46;;;;;;;19.75;10.48;;;;;;;2.95;65.24;101203.13;8400632;28;20036;-64
2022/03/09 00:32:47;;;;;;;17.02;9.52;;;;;;;2.91;65.22;101206.91;8401504;28;20048;-64
2022/03/09 00:36:48;;;;;;;19.05;9.95;;;;;;;2.99;64.78;101210.03;8382923;28;20468;-64
2022/03/09 00:40:50;;;;;;;23.25;10.80;;;;;;;3.11;64.30;101203.25;8384348;28;20084;-65
2022/03/09 00:44:50;;;;;;;20.05;10.20;;;;;;;2.99;64.80;101210.03;8365183;28;20040;-65
2022/03/09 00:48:50;;;;;;;17.48;9.77;;;;;;;2.86;65.77;101208.91;8394286;28;20056;-64
2022/03/09 00:52:51;;;;;;;19.25;10.15;;;;;;;2.71;66.42;101209.66;8400226;28;20056;-64
2022/03/09 00:56:51;;;;;;;19.55;10.93;;;;;;;2.44;68.13;101210.13;8394429;28;20090;-65
2022/03/09 01:00:52;;;;;;;26.00;11.75;;;;;;;2.38;68.83;101213.94;8369432;28;20037;-64
2022/03/09 01:04:52;;;;;;;17.98;10.48;;;;;;;2.29;69.24;101222.41;8420820;28;20043;-64
2022/03/09 01:08:52;;;;;;;18.55;10.85;;;;;;;2.20;69.56;101216.63;8394062;28;20037;-65
2022/03/09 01:12:53;;;;;;;20.25;11.00;;;;;;;2.32;68.45;101206.25;8387437;28;20049;-64
2022/03/09 01:16:53;;;;;;;20.92;10.90;;;;;;;2.26;68.55;101203.88;8391206;28;20036;-64
2022/03/09 01:20:54;;;;;;;21.02;10.95;;;;;;;2.25;68.43;101217.28;8400454;28;20036;-64
2022/03/09 01:24:54;;;;;;;22.45;10.77;;;;;;;2.22;69.02;101222.75;8373309;28;20055;-64
2022/03/09 01:28:54;;;;;;;24.60;11.20;;;;;;;2.15;68.84;101205.28;8371204;28;20033;-64
2022/03/09 01:32:55;;;;;;;25.02;10.88;;;;;;;2.27;68.39;101208.25;8388448;28;20029;-64
2022/03/09 01:36:55;;;;;;;24.65;11.43;;;;;;;2.23;68.71;101201.34;8354193;28;20034;-64
2022/03/09 01:40:56;;;;;;;24.98;11.77;;;;;;;2.08;69.06;101202.06;8402627;28;20029;-64
2022/03/09 01:45:02;;;;;;;27.02;11.85;;;;;;;1.86;69.84;101190.66;8387075;28;20037;-64
2022/03/09 01:49:04;;;;;;;21.25;11.15;;;;;;;1.76;71.10;101186.63;8397674;28;20096;-64
2022/03/09 01:53:05;;;;;;;24.85;10.63;;;;;;;1.63;71.11;101183.69;8405356;28;20116;-65
2022/03/09 01:57:06;;;;;;;20.48;11.18;;;;;;;1.54;71.81;101184.09;8403778;28;20041;-64
2022/03/09 02:01:07;;;;;;;24.70;11.85;;;;;;;1.39;72.88;101190.06;8404530;28;20033;-64
2022/03/09 02:05:07;;;;;;;26.58;11.52;;;;;;;1.24;74.58;101185.41;8418355;28;20040;-64
2022/03/09 02:10:10;;;;;;;19.73;11.07;;;;;;;1.27;74.34;101187.06;8386880;28;20037;-64
2022/03/09 02:13:30;;;;;;;26.45;12.05;;;;;;;1.34;74.16;101185.91;8404325;28;20047;-64
2022/03/09 02:17:30;;;;;;;18.55;10.40;;;;;;;1.35;74.01;101187.63;8404832;28;20489;-64
2022/03/09 02:21:32;;;;;;;25.08;12.18;;;;;;;1.34;74.29;101194.72;8404382;28;20036;-64
2022/03/09 02:25:33;;;;;;;21.17;10.98;;;;;;;1.45;73.37;101194.25;8386665;28;20041;-64
2022/03/09 02:29:33;;;;;;;19.38;10.48;;;;;;;1.48;73.28;101195.00;8404782;28;20382;-64
2022/03/09 02:33:34;;;;;;;18.95;10.55;;;;;;;1.48;73.08;101191.47;8419589;28;20047;-64
2022/03/09 02:37:34;;;;;;;22.65;11.55;;;;;;;1.32;73.11;101193.94;8399639;28;20412;-64
2022/03/09 02:41:34;;;;;;;27.90;11.90;;;;;;;1.38;72.41;101193.69;8370798;28;20439;-64
2022/03/09 02:45:35;;;;;;;22.60;10.13;;;;;;;1.54;71.92;101191.19;8370348;28;20039;-64
2022/03/09 02:49:35;;;;;;;25.60;10.88;;;;;;;1.52;71.60;101193.94;8385987;28;20068;-64
2022/03/09 02:53:36;;;;;;;22.08;11.27;;;;;;;1.24;73.52;101188.06;8353732;28;20044;-64
2022/03/09 02:57:36;;;;;;;22.63;12.35;;;;;;;0.87;75.25;101195.00;8370301;28;20041;-64
2022/03/09 03:01:37;;;;;;;27.55;12.15;;;;;;;0.75;76.35;101195.50;8370457;28;20044;-64
2022/03/09 03:05:37;;;;;;;23.80;10.85;;;;;;;1.17;74.59;101183.06;8376463;28;20505;-70
2022/03/09 03:09:38;;;;;;;22.00;10.68;;;;;;;1.31;73.41;101186.03;8387700;28;20064;-64
2022/03/09 03:13:40;;;;;;;26.27;11.57;;;;;;;1.25;73.88;101175.63;8369322;28;20075;-64
2022/03/09 03:17:40;;;;;;;22.13;10.82;;;;;;;1.20;73.93;101178.50;8369713;28;20156;-65
2022/03/09 03:21:40;;;;;;;21.92;10.35;;;;;;;1.12;74.31;101179.72;8368225;28;20036;-64
2022/03/09 03:25:41;;;;;;;20.70;9.82;;;;;;;1.10;74.30;101171.81;8384495;28;20037;-65
2022/03/09 03:29:41;;;;;;;22.63;10.93;;;;;;;1.07;74.76;101176.41;8379908;28;20060;-64
2022/03/09 03:33:41;;;;;;;23.83;11.88;;;;;;;1.02;74.45;101181.06;8401253;28;20036;-64
2022/03/09 03:37:42;;;;;;;28.23;11.80;;;;;;;0.96;74.92;101183.97;8416662;28;20062;-64
2022/03/09 03:41:42;;;;;;;23.20;11.82;;;;;;;0.87;75.51;101179.03;8384014;28;20560;-64
2022/03/09 03:45:43;;;;;;;24.83;12.20;;;;;;;0.83;76.04;101180.09;8400640;28;20040;-64
2022/03/09 03:49:43;;;;;;;24.73;11.32;;;;;;;0.85;76.52;101159.63;8402079;28;20044;-64
2022/03/09 03:53:43;;;;;;;22.77;12.30;;;;;;;0.78;76.59;101168.78;8400955;28;20033;-64
2022/03/09 03:57:44;;;;;;;25.88;12.77;;;;;;;0.73;76.83;101165.47;8383847;28;20040;-64
2022/03/09 04:01:44;;;;;;;24.90;11.57;;;;;;;0.63;77.67;101174.72;8383020;28;20037;-64
2022/03/09 04:05:45;;;;;;;21.48;10.65;;;;;;;0.60;77.91;101172.19;8400556;28;20033;-64
2022/03/09 04:09:45;;;;;;;22.00;10.57;;;;;;;0.61;77.28;101171.28;8400530;28;20036;-65
2022/03/09 04:13:45;;;;;;;20.00;11.50;;;;;;;0.52;77.87;101167.16;8401196;28;20492;-64
2022/03/09 04:17:47;;;;;;;23.02;10.73;;;;;;;0.50;77.85;101163.72;8372039;28;20109;-65
2022/03/09 04:21:47;;;;;;;24.73;10.48;;;;;;;0.57;77.75;101153.69;8379678;28;20094;-64
2022/03/09 04:25:47;;;;;;;21.38;10.13;;;;;;;0.65;76.52;101163.09;8367017;28;20037;-64
2022/03/09 04:29:48;;;;;;;21.17;11.15;;;;;;;0.56;76.72;101167.91;8366885;28;20048;-65
2022/03/09 04:33:49;;;;;;;26.50;11.38;;;;;;;0.55;76.78;101161.72;8367728;28;20037;-64
2022/03/09 04:37:49;;;;;;;26.73;10.85;;;;;;;0.57;76.04;101164.31;8372543;28;20048;-64
2022/03/09 04:41:49;;;;;;;23.77;9.98;;;;;;;0.63;75.71;101164.06;8382250;28;20045;-64
2022/03/09 04:45:50;;;;;;;23.13;10.40;;;;;;;0.61;75.38;101160.63;8381786;28;20040;-64
2022/03/09 04:49:51;;;;;;;22.45;10.07;;;;;;;0.58;75.08;101155.44;8364001;28;20032;-64
2022/03/09 04:53:51;;;;;;;20.77;10.60;;;;;;;0.61;75.55;101155.31;8380932;28;20036;-65
2022/03/09 04:57:52;;;;;;;20.02;9.85;;;;;;;0.65;75.25;101156.91;8368723;28;20048;-64
2022/03/09 05:01:52;;;;;;;19.30;9.95;;;;;;;0.61;75.84;101160.63;8390393;28;20056;-64
2022/03/09 05:05:52;;;;;;;23.00;10.43;;;;;;;0.52;76.03;101163.66;8391453;28;20061;-64
2022/03/09 05:09:53;;;;;;;22.80;11.00;;;;;;;0.55;75.78;101171.53;8392686;28;20047;-64
2022/03/09 05:13:53;;;;;;;21.38;9.15;;;;;;;0.61;75.30;101172.13;8399287;28;20063;-64
2022/03/09 05:17:54;;;;;;;17.70;8.50;;;;;;;0.71;74.62;101169.97;8394994;28;20404;-64
2022/03/09 05:21:55;;;;;;;18.65;9.80;;;;;;;0.76;74.63;101175.97;8391252;28;20108;-64
2022/03/09 05:25:55;;;;;;;19.02;10.15;;;;;;;0.62;74.88;101167.69;8385988;28;20558;-64
2022/03/09 05:29:56;;;;;;;22.42;10.27;;;;;;;0.52;75.01;101182.28;8364242;28;20029;-64
2022/03/09 05:33:56;;;;;;;25.70;10.90;;;;;;;0.49;75.57;101171.78;8364284;28;20144;-64
2022/03/09 05:37:56;;;;;;;22.65;10.25;;;;;;;0.35;76.04;101179.41;8373560;28;20399;-64
2022/03/09 05:41:57;;;;;;;20.75;10.07;;;;;;;0.43;75.88;101182.66;8392306;28;20162;-64
2022/03/09 05:45:57;;;;;;;16.27;9.55;;;;;;;0.51;75.49;101181.41;8398121;28;20037;-64
2022/03/09 05:49:58;;;;;;;16.48;9.00;;;;;;;0.58;75.07;101171.41;8332387;28;20037;-64
2022/03/09 05:53:59;;;;;;;18.40;9.77;;;;;;;0.63;74.46;101188.03;8368970;28;20075;-64
2022/03/09 05:57:59;;;;;;;21.15;9.98;;;;;;;0.54;74.92;101199.03;8388490;28;20051;-64
2022/03/09 06:01:59;;;;;;;20.35;9.82;;;;;;;0.59;73.72;101199.72;8367715;28;20045;-64
2022/03/09 06:06:00;;;;;;;18.98;9.32;;;;;;;0.54;74.28;101196.38;8399393;28;20040;-64
2022/03/09 06:10:01;;;;;;;20.50;9.90;;;;;;;0.30;75.62;101208.84;8400469;28;20032;-65
2022/03/09 06:14:01;;;;;;;18.52;10.88;;;;;;;0.12;77.60;101211.34;8391056;28;20037;-64
2022/03/09 06:18:01;;;;;;;25.02;11.18;;;;;;;-0.02;78.80;101218.06;8386243;28;20067;-64
2022/03/09 06:22:02;;;;;;;22.73;10.90;;;;;;;0.23;77.66;101219.78;8392270;28;20250;-64
2022/03/09 06:26:02;;;;;;;23.40;10.18;;;;;;;0.52;75.98;101211.53;8384837;28;20040;-64
2022/03/09 06:30:03;;;;;;;24.13;10.25;;;;;;;0.81;74.57;101211.22;8407270;28;20095;-64
2022/03/09 06:34:04;;;;;;;22.17;11.25;;;;;;;0.92;73.98;101211.66;8385437;28;20512;-64
2022/03/09 06:38:05;;;;;;;23.10;9.48;;;;;;;1.03;73.97;101218.25;8388516;28;20094;-65
2022/03/09 06:42:05;;;;;;;13.85;7.28;;;;;;;1.75;77.92;101228.44;8395477;28;20604;-64
2022/03/09 06:46:06;;;;;;;27.60;10.18;;;;;;;1.39;73.48;101221.16;8388098;28;20044;-65
2022/03/09 06:50:08;;;;;;;21.17;9.85;;;;;;;1.56;73.23;101231.97;8389900;28;20032;-65
2022/03/09 06:54:08;;;;;;;30.55;10.80;;;;;;;1.75;72.32;101235.56;8372093;28;20040;-65
2022/03/09 06:58:10;;;;;;;20.10;10.07;;;;;;;2.00;72.04;101236.19;8415868;28;20047;-65
2022/03/09 07:02:10;;;;;;;25.98;10.20;;;;;;;2.31;71.71;101239.19;8422859;28;20046;-65
2022/03/09 07:06:12;;;;;;;20.08;9.20;;;;;;;2.65;70.15;101247.31;8411153;28;20044;-65
2022/03/09 07:10:13;;;;;;;20.15;9.43;;;;;;;2.79;69.57;101239.53;8369610;28;20063;-65
2022/03/09 07:14:13;;;;;;;29.92;11.55;;;;;;;2.97;69.67;101249.31;8388177;28;20041;-65
2022/03/09 07:18:15;;;;;;;32.70;14.27;;;;;;;3.26;69.50;101246.06;8403421;28;20048;-65
2022/03/09 07:22:15;;;;;;;26.88;12.88;;;;;;;3.43;68.51;101253.22;8387345;28;20039;-65
2022/03/09 07:26:16;;;;;;;26.05;13.80;;;;;;;3.59;67.64;101255.03;8402205;28;20033;-65
2022/03/09 07:30:16;;;;;;;28.13;11.43;;;;;;;3.80;66.64;101256.63;8386205;28;20041;-65
2022/03/09 07:34:17;;;;;;;28.27;13.60;;;;;;;4.02;65.82;101254.53;8386707;28;20408;-65
2022/03/09 07:38:18;;;;;;;19.40;11.70;;;;;;;4.18;65.11;101259.06;8368450;28;20040;-65
2022/03/09 07:42:18;;;;;;;22.13;11.07;;;;;;;4.37;64.92;101258.00;8368784;28;20413;-65
2022/03/09 07:46:18;;;;;;;19.88;9.13;;;;;;;4.54;64.55;101251.72;8364332;28;20497;-65
2022/03/09 07:50:19;;;;;;;18.90;10.63;;;;;;;4.71;64.29;101260.53;8368739;28;20387;-65
2022/03/09 07:54:19;;;;;;;18.48;10.02;;;;;;;4.99;64.47;101266.06;8368786;28;20064;-65
2022/03/09 07:58:20;;;;;;;19.83;10.45;;;;;;;5.23;63.59;101269.16;8364774;28;20037;-65
2022/03/09 08:02:21;;;;;;;17.70;10.10;;;;;;;5.32;63.05;101268.63;8353240;28;20037;-65
2022/03/09 08:06:21;;;;;;;16.88;9.15;;;;;;;5.50;63.60;101268.44;8381104;28;20035;-65
2022/03/09 08:10:22;;;;;;;18.10;9.57;;;;;;;5.68;62.96;101277.19;8367916;28;20444;-65
2022/03/09 08:14:22;;;;;;;16.83;9.25;;;;;;;5.92;62.38;101279.28;8368473;28;20063;-66
2022/03/09 08:18:22;;;;;;;23.83;10.55;;;;;;;6.18;62.86;101280.38;8367133;28;20044;-65
2022/03/09 08:22:23;;;;;;;24.10;10.00;;;;;;;6.44;62.09;101279.66;8383761;28;20033;-65
2022/03/09 08:26:23;;;;;;;20.10;9.13;;;;;;;6.63;60.75;101282.03;8367823;28;20556;-65
2022/03/09 08:30:24;;;;;;;16.13;7.82;;;;;;;6.83;59.94;101282.47;8367352;28;20520;-66
2022/03/09 08:34:25;;;;;;;17.95;9.40;;;;;;;7.19;59.20;101281.91;8351558;28;20036;-65
2022/03/09 08:38:25;;;;;;;13.15;7.90;;;;;;;7.26;57.08;101284.09;8366292;28;20526;-66
2022/03/09 08:42:25;;;;;;;17.23;8.85;;;;;;;7.51;56.99;101294.97;8366862;28;20036;-66
2022/03/09 08:46:26;;;;;;;13.57;7.82;;;;;;;7.54;55.91;101292.06;8384678;28;20037;-66
2022/03/09 08:50:26;;;;;;;19.35;8.95;;;;;;;7.77;55.28;101293.22;8384679;28;20132;-66
2022/03/09 08:54:27;;;;;;;13.95;8.50;;;;;;;7.93;54.00;101284.00;8384983;28;20127;-65
2022/03/09 08:58:27;;;;;;;18.40;8.15;;;;;;;8.04;53.65;101292.19;8385028;28;20166;-66
2022/03/09 09:02:27;;;;;;;12.82;7.93;;;;;;;8.13;53.76;101300.59;8366500;28;20127;-66
2022/03/09 09:06:29;;;;;;;15.20;8.30;;;;;;;8.65;53.49;101293.31;8385101;28;20456;-66
2022/03/09 09:10:30;;;;;;;13.30;8.45;;;;;;;8.62;52.26;101294.41;8390605;28;20758;-66
2022/03/09 09:14:30;;;;;;;12.68;7.78;;;;;;;8.98;52.62;101285.50;8390676;28;20062;-65
2022/03/09 09:18:31;;;;;;;16.33;8.38;;;;;;;8.95;50.82;101301.88;8372249;28;20067;-65
2022/03/09 09:22:32;;;;;;;16.70;8.82;;;;;;;9.80;50.50;101292.69;8390364;28;20378;-65
2022/03/09 09:26:32;;;;;;;15.60;8.82;;;;;;;11.05;48.61;101290.81;8389807;28;20123;-66
2022/03/09 09:30:34;;;;;;;15.20;9.43;;;;;;;11.65;46.28;101284.94;8389909;28;20610;-66
2022/03/09 09:34:34;;;;;;;16.83;9.13;;;;;;;12.22;45.13;101292.63;8396260;28;20049;-66
2022/03/09 09:38:35;;;;;;;16.60;9.27;;;;;;;13.08;43.94;101293.97;8389951;28;20059;-66
2022/03/09 09:42:35;;;;;;;14.90;8.48;;;;;;;12.54;43.79;101271.72;8371259;28;20406;-66
2022/03/09 09:46:39;;;;;;;14.68;8.35;;;;;;;13.13;43.07;101294.44;8389620;28;20040;-66
2022/03/09 09:50:41;;;;;;;15.43;8.27;;;;;;;13.40;43.06;101281.09;8389458;28;20046;-66
2022/03/09 09:54:43;;;;;;;18.35;9.07;;;;;;;14.09;41.92;101282.69;8389364;28;20127;-66
2022/03/09 09:58:44;;;;;;;19.20;9.45;;;;;;;14.39;41.54;101271.66;8389014;28;20128;-65
2022/03/09 10:02:45;;;;;;;15.77;9.65;;;;;;;15.12;41.40;101277.09;8389300;28;20051;-66
2022/03/09 10:06:45;;;;;;;13.82;8.35;;;;;;;15.36;40.30;101274.69;8389218;28;20033;-66
2022/03/09 10:10:56;;;;;;;14.30;8.38;;;;;;;15.03;40.85;101278.00;8388340;28;20040;-66
2022/03/09 10:14:56;;;;;;;17.00;9.00;;;;;;;15.29;40.38;101268.13;8389448;28;20029;-66
2022/03/09 10:18:58;;;;;;;14.52;9.63;;;;;;;15.83;39.82;101272.66;8387890;28;20484;-66
2022/03/09 10:23:00;;;;;;;18.67;8.95;;;;;;;16.42;39.62;101261.03;8389086;28;20043;-66
2022/03/09 10:27:01;;;;;;;23.90;9.75;;;;;;;16.61;39.32;101263.56;8388379;28;20044;-66
2022/03/09 10:31:01;;;;;;;20.45;9.70;;;;;;;16.04;38.75;101264.16;8370438;28;20042;-66
2022/03/09 10:35:02;;;;;;;16.52;9.90;;;;;;;16.51;39.57;101251.91;8389567;28;20234;-66
2022/03/09 10:39:17;;;;;;;13.77;9.10;;;;;;;16.67;38.46;101257.47;8387983;28;20044;-66
2022/03/09 10:43:21;;;;;;;18.33;10.05;;;;;;;17.00;39.29;101259.38;8387886;28;20095;-66
2022/03/09 10:47:44;;;;;;;17.48;10.35;;;;;;;17.05;39.18;101257.00;8388573;28;20081;-66
2022/03/09 10:51:49;;;;;;;20.27;9.80;;;;;;;16.86;38.08;101257.22;8387995;28;20041;-66
2022/03/09 10:55:50;;;;;;;20.73;10.45;;;;;;;16.99;37.76;101247.56;8387254;28;20067;-66
2022/03/09 10:59:52;;;;;;;19.25;10.23;;;;;;;17.40;38.82;101246.72;8387305;28;20051;-66
2022/03/09 11:03:53;;;;;;;21.95;11.52;;;;;;;17.41;38.04;101242.94;8387463;28;20033;-66
2022/03/09 11:07:53;;;;;;;16.45;10.05;;;;;;;17.06;38.28;101225.91;8402647;28;20155;-66
2022/03/09 11:11:55;;;;;;;14.23;9.57;;;;;;;17.88;36.85;101232.28;8352120;28;20039;-66
2022/03/09 11:15:55;;;;;;;21.10;10.70;;;;;;;17.91;36.87;101231.97;8386906;28;20041;-66
2022/03/09 11:19:56;;;;;;;19.67;10.18;;;;;;;18.18;36.71;101231.63;8386438;28;20044;-66
2022/03/09 11:23:57;;;;;;;20.67;10.95;;;;;;;18.45;36.34;101220.28;8386879;28;20057;-66
2022/03/09 11:27:59;;;;;;;23.23;11.68;;;;;;;18.45;36.49;101211.25;8386251;28;20028;-66
2022/03/09 11:31:59;;;;;;;18.27;10.63;;;;;;;18.52;36.04;101210.38;8388954;28;20098;-66
2022/03/09 11:36:00;;;;;;;17.48;11.05;;;;;;;19.48;35.08;101211.84;8386706;28;20036;-66
2022/03/09 11:48:54;;;;;;;22.67;11.55;;;;;;;19.70;33.82;101216.50;8355464;27;20436;-65
2022/03/09 11:53:05;;;;;;;19.20;11.73;;;;;;;20.33;33.78;101194.19;8347846;28;20497;-65
2022/03/09 11:57:07;;;;;;;18.73;10.98;;;;;;;20.16;33.13;101190.75;8348215;28;20520;-65
2022/03/09 12:01:07;;;;;;;20.67;12.43;;;;;;;19.55;33.77;101198.28;8349125;28;20128;-65
2022/03/09 12:10:00;;;;;;;21.17;12.23;;;;;;;20.22;34.58;101180.94;8406992;27;20490;-65
2022/03/09 12:14:00;;;;;;;18.27;12.45;;;;;;;19.84;34.33;101179.16;8398080;27;20123;-65
2022/03/09 12:18:40;;;;;;;19.27;11.43;;;;;;;20.44;32.83;101177.25;8399133;27;20040;-65
2022/03/09 12:23:02;;;;;;;20.77;11.48;;;;;;;20.55;33.54;101174.03;8397162;27;20672;-65
2022/03/09 12:27:22;;;;;;;24.50;13.85;;;;;;;19.89;33.15;101165.75;8387239;27;20045;-65
2022/03/09 12:31:24;;;;;;;24.20;14.50;;;;;;;21.31;33.66;101168.94;8398682;27;20037;-65
2022/03/09 12:35:24;;;;;;;21.95;14.20;;;;;;;19.99;33.78;101166.34;8399090;27;20044;-64
2022/03/09 12:39:26;;;;;;;22.55;12.55;;;;;;;20.77;33.01;101167.59;8378725;27;20060;-64
2022/03/09 12:43:49;;;;;;;22.02;12.60;;;;;;;20.53;32.85;101162.41;8350165;28;20037;-65
2022/03/09 12:47:54;;;;;;;20.75;12.15;;;;;;;20.25;33.07;101162.16;8361486;28;20438;-65
2022/03/09 12:51:57;;;;;;;21.02;13.70;;;;;;;20.57;33.10;101167.31;8359968;28;20045;-65
2022/03/09 12:56:13;;;;;;;19.27;12.20;;;;;;;20.57;33.13;101156.34;8361757;28;20040;-65
2022/03/09 13:00:16;;;;;;;23.25;13.32;;;;;;;20.24;33.28;101152.22;8347270;28;20413;-65
2022/03/09 13:04:22;;;;;;;21.92;13.75;;;;;;;18.29;35.59;101156.47;8347578;28;20037;-64
2022/03/09 13:08:32;;;;;;;23.27;13.60;;;;;;;16.90;37.65;101150.22;8354872;28;20040;-64
2022/03/09 13:12:34;;;;;;;28.73;13.90;;;;;;;16.65;37.26;101142.13;8344762;28;20037;-64
2022/03/09 13:16:34;;;;;;;27.50;13.88;;;;;;;16.23;38.10;101122.06;8347829;28;20091;-64
2022/03/09 13:20:37;;;;;;;24.52;13.48;;;;;;;16.20;39.19;101127.84;8327086;28;20409;-64
2022/03/09 13:24:37;;;;;;;23.38;12.88;;;;;;;15.77;39.21;101129.63;8323183;28;20041;-64
2022/03/09 13:28:38;;;;;;;26.10;14.43;;;;;;;15.67;38.73;101114.38;8329264;28;20044;-64
2022/03/09 13:32:38;;;;;;;29.65;14.25;;;;;;;15.55;39.57;101113.78;8328822;28;20108;-64
2022/03/09 13:36:39;;;;;;;26.52;13.73;;;;;;;15.63;39.39;101118.44;8330989;28;20088;-64
2022/03/09 13:40:46;;;;;;;33.20;14.40;;;;;;;15.89;38.87;101104.81;8325973;28;20033;-64
2022/03/09 13:49:20;;;;;;;26.75;14.30;;;;;;;15.98;39.75;101106.59;8333689;27;20855;-64
2022/03/09 13:53:21;;;;;;;26.95;14.05;;;;;;;15.64;39.74;101110.09;8338452;28;20365;-64
2022/03/09 13:57:39;;;;;;;27.92;15.10;;;;;;;15.51;39.42;101104.22;8338761;28;20072;-64
2022/03/09 14:01:39;;;;;;;29.67;15.10;;;;;;;15.68;38.71;101097.00;8336911;28;20065;-64
2022/03/09 14:05:42;;;;;;;26.48;14.13;;;;;;;15.64;38.65;101095.59;8338800;28;20619;-64
2022/03/09 14:10:11;;;;;;;27.70;14.48;;;;;;;15.69;38.42;101096.00;8334479;28;20041;-64
2022/03/09 14:14:15;;;;;;;25.77;13.10;;;;;;;15.64;37.85;101104.63;8330982;28;20141;-64
2022/03/09 14:18:15;;;;;;;31.65;15.10;;;;;;;15.49;38.09;101095.31;8335633;28;20091;-64
2022/03/09 14:22:15;;;;;;;29.48;15.05;;;;;;;15.42;38.09;101099.69;8319835;28;20045;-64
2022/03/09 14:26:16;;;;;;;27.98;11.88;;;;;;;15.91;39.13;101100.03;8337084;28;20049;-64
2022/03/09 14:30:17;;;;;;;22.20;12.60;;;;;;;15.50;38.06;101099.75;8332725;28;20044;-64
2022/03/09 14:34:19;;;;;;;23.08;13.05;;;;;;;15.08;39.47;101106.84;8343403;28;20498;-62
2022/03/09 14:38:19;;;;;;;27.20;12.40;;;;;;;15.21;39.01;101106.44;8310681;28;20041;-64
2022/03/09 14:42:20;;;;;;;22.60;12.73;;;;;;;15.30;38.13;101111.81;8360974;28;20164;-63
2022/03/09 14:46:21;;;;;;;25.33;12.65;;;;;;;15.13;38.36;101104.50;8338063;28;20349;-64
2022/03/09 14:50:22;;;;;;;24.75;11.88;;;;;;;14.97;39.04;101107.06;8338256;28;20043;-64
2022/03/09 14:54:22;;;;;;;22.00;12.25;;;;;;;14.92;38.82;101097.66;8326345;28;20046;-63
2022/03/09 14:58:23;;;;;;;20.58;11.95;;;;;;;14.95;39.32;101090.00;8322266;28;20595;-64
2022/03/09 15:02:23;;;;;;;21.55;11.18;;;;;;;14.93;39.02;101092.03;8303819;28;20038;-64
2022/03/09 15:06:25;;;;;;;27.83;11.95;;;;;;;15.00;40.63;101097.72;8309233;28;20049;-64
2022/03/09 15:10:27;;;;;;;19.63;11.43;;;;;;;14.98;39.19;101095.16;8315194;28;20064;-64
2022/03/09 15:14:27;;;;;;;21.20;12.13;;;;;;;14.87;39.86;101098.09;8314138;28;20068;-63
2022/03/09 15:18:28;;;;;;;23.70;12.10;;;;;;;14.80;39.25;101090.72;8317936;28;20513;-64
2022/03/09 15:22:29;;;;;;;22.92;11.75;;;;;;;14.92;39.13;101101.25;8317664;28;20033;-63
2022/03/09 15:26:30;;;;;;;22.13;11.35;;;;;;;14.93;39.14;101102.06;8314225;28;20618;-63
2022/03/09 15:30:31;;;;;;;22.67;12.13;;;;;;;14.94;39.15;101101.06;8314322;28;20413;-63
2022/03/09 15:34:31;;;;;;;19.45;11.25;;;;;;;15.02;38.80;101102.00;8317804;28;20076;-63
2022/03/09 15:38:32;;;;;;;21.40;11.95;;;;;;;14.82;38.74;101103.16;8317660;28;20041;-63
2022/03/09 15:42:34;;;;;;;24.63;12.13;;;;;;;14.66;38.42;101111.13;8317590;28;20072;-63
2022/03/09 15:46:36;;;;;;;22.92;12.55;;;;;;;14.71;38.65;101102.50;8315217;28;20078;-63
2022/03/09 15:50:37;;;;;;;28.42;12.38;;;;;;;14.74;39.53;101097.63;8310299;28;20588;-63
2022/03/09 15:54:38;;;;;;;25.95;11.93;;;;;;;14.54;38.94;101104.19;8308930;28;20418;-63
2022/03/09 15:58:39;;;;;;;19.65;12.05;;;;;;;14.53;38.99;101094.31;8314132;28;20041;-64
2022/03/09 16:02:45;;;;;;;21.73;11.82;;;;;;;14.44;39.71;101100.66;8320475;28;20073;-63
2022/03/09 16:06:46;;;;;;;19.17;11.88;;;;;;;14.36;39.96;101095.13;8311521;28;20076;-63
2022/03/09 16:10:46;;;;;;;22.02;11.35;;;;;;;14.37;39.75;101102.28;8297919;28;20140;-63
2022/03/09 16:14:47;;;;;;;21.00;11.93;;;;;;;14.37;39.45;101098.69;8313287;28;20052;-63
2022/03/09 16:18:47;;;;;;;26.85;12.02;;;;;;;14.32;40.37;101099.16;8303917;28;20056;-64
2022/03/09 16:22:48;;;;;;;20.88;12.38;;;;;;;14.19;41.07;101105.91;8318899;28;20481;-63
2022/03/09 16:26:48;;;;;;;23.77;12.38;;;;;;;14.05;41.65;101092.78;8323177;28;20414;-62
2022/03/09 16:30:49;;;;;;;25.70;12.45;;;;;;;14.00;40.76;101109.53;8324298;28;20037;-64
2022/03/09 16:34:49;;;;;;;21.98;12.15;;;;;;;13.89;41.10;101109.72;8317975;28;20049;-64
2022/03/09 16:38:49;;;;;;;24.35;12.32;;;;;;;13.71;41.75;101106.06;8318380;28;21176;-63
2022/03/09 16:42:51;;;;;;;24.27;13.77;;;;;;;13.69;41.78;101118.91;8310764;28;20049;-64
2022/03/09 16:46:53;;;;;;;25.25;13.88;;;;;;;13.66;41.98;101119.19;8305636;28;20041;-63
2022/03/09 16:50:54;;;;;;;28.17;13.43;;;;;;;13.53;42.48;101124.09;8319702;28;20044;-63
2022/03/09 16:54:54;;;;;;;26.42;13.40;;;;;;;13.31;43.19;101124.41;8308913;28;20148;-63
2022/03/09 16:58:55;;;;;;;24.90;12.70;;;;;;;13.16;43.46;101131.25;8316292;28;20512;-63
2022/03/09 17:02:55;;;;;;;24.80;12.98;;;;;;;13.09;43.56;101135.53;8345586;28;20155;-63
2022/03/09 17:06:56;;;;;;;26.55;12.63;;;;;;;13.05;43.61;101134.13;8297587;28;20041;-63
2022/03/09 17:10:56;;;;;;;29.92;13.25;;;;;;;12.87;43.68;101136.59;8314494;28;20037;-63
2022/03/09 17:14:57;;;;;;;27.15;13.65;;;;;;;12.72;43.94;101132.56;8314500;28;20045;-63
2022/03/09 17:18:58;;;;;;;40.45;13.98;;;;;;;12.43;44.75;101141.63;8314524;28;20041;-64
2022/03/09 17:22:58;;;;;;;27.05;12.98;;;;;;;12.42;44.61;101150.78;8314743;28;20104;-63
2022/03/09 17:26:59;;;;;;;27.73;12.90;;;;;;;12.30;44.71;101146.44;8307212;28;20405;-63
2022/03/09 17:30:59;;;;;;;30.20;13.57;;;;;;;12.18;44.78;101147.53;8317095;28;20140;-63
2022/03/09 17:49:58;;;;;;;27.92;13.68;;;;;;;11.71;45.38;101179.63;8340664;28;20517;-63
2022/03/09 17:53:59;;;;;;;27.35;13.20;;;;;;;11.59;45.39;101179.78;8387217;28;20044;-63
2022/03/09 17:57:59;;;;;;;26.00;13.33;;;;;;;11.41;45.85;101182.19;8384051;28;20032;-63
2022/03/09 18:02:00;;;;;;;23.90;13.43;;;;;;;11.29;45.92;101199.47;8385571;28;20291;-63
2022/03/09 18:06:03;;;;;;;29.77;13.65;;;;;;;11.21;45.97;101193.84;8387459;28;20035;-63
2022/03/09 18:10:04;;;;;;;34.08;14.88;;;;;;;11.19;45.95;101192.28;8387092;28;20032;-63
2022/03/09 18:14:05;;;;;;;25.60;13.18;;;;;;;11.06;45.67;101197.84;8388319;28;20035;-63
2022/03/09 18:18:06;;;;;;;27.75;13.18;;;;;;;10.95;46.05;101203.25;8382439;28;20060;-63
2022/03/09 18:22:07;;;;;;;28.42;13.93;;;;;;;10.86;46.12;101209.41;8392148;28;20035;-63
2022/03/09 18:26:07;;;;;;;27.38;14.30;;;;;;;10.75;46.31;101212.16;8391587;28;20076;-63
2022/03/09 18:30:08;;;;;;;28.70;14.05;;;;;;;10.71;46.24;101210.69;8389589;28;20059;-63
2022/03/09 18:34:09;;;;;;;36.08;16.98;;;;;;;10.63;46.49;101212.28;8384179;28;20048;-63
2022/03/09 18:38:09;;;;;;;30.95;16.48;;;;;;;10.51;46.79;101208.72;8367668;28;20048;-63
2022/03/09 18:42:10;;;;;;;27.65;15.77;;;;;;;10.60;46.68;101213.41;8365690;28;20032;-63
2022/03/09 18:46:10;;;;;;;36.25;14.57;;;;;;;10.58;46.70;101220.75;8385685;28;20045;-63
2022/03/09 18:50:12;;;;;;;31.10;14.98;;;;;;;10.46;47.04;101224.44;8381784;28;20159;-63
2022/03/09 18:54:12;;;;;;;32.47;16.67;;;;;;;10.34;46.97;101228.13;8376666;28;20065;-63
2022/03/09 18:58:13;;;;;;;29.33;16.07;;;;;;;10.12;48.21;101222.69;8390957;28;20040;-63